Time;durP1;ratioP1;P1;durP2;ratioP2;P2;SDS_P1;SDS_P2;PMS_P1;PMS_P2;Temp;Humidity;BMP_temperature;BMP_pressure;BME280_temperature;BME280_humidity;BME280_pressure;Samples;Min_cycle;Max_cycle;Signal;HPM_P1;HPM_P2
2022/05/17 00:00:36;;;;;;;12.40;6.60;;;;;;;;;;5029212;28;20045;-84
2022/05/17 00:03:02;;;;;;;11.68;6.68;;;;;;;;;;5041880;28;20022;-84
2022/05/17 00:05:32;;;;;;;11.38;6.10;;;;;;;;;;5021889;28;20036;-87
2022/05/17 00:07:57;;;;;;;8.45;5.97;;;;;;;;;;5035442;28;20065;-85
2022/05/17 00:10:27;;;;;;;9.52;5.70;;;;;;;;;;5019265;28;20056;-85
2022/05/17 00:12:53;;;;;;;12.23;6.30;;;;;;;;;;5018683;28;20066;-84
2022/05/17 00:15:20;;;;;;;11.75;5.50;;;;;;;;;;5035319;28;20124;-85
2022/05/17 00:17:47;;;;;;;13.13;6.53;;;;;;;;;;5002525;28;20099;-87
2022/05/17 00:20:27;;;;;;;9.77;5.35;;;;;;;;;;5020076;28;20030;-87
2022/05/17 00:22:52;;;;;;;11.07;5.85;;;;;;;;;;5034080;28;20047;-88
2022/05/17 00:25:19;;;;;;;9.13;5.72;;;;;;;;;;5001897;28;20029;-83
2022/05/17 00:27:45;;;;;;;9.05;5.38;;;;;;;;;;5018436;28;20072;-86
2022/05/17 00:30:12;;;;;;;8.48;5.53;;;;;;;;;;5015185;28;20046;-85
2022/05/17 00:32:41;;;;;;;11.45;5.78;;;;;;;;;;5002067;28;20045;-84
2022/05/17 00:35:08;;;;;;;10.32;5.18;;;;;;;;;;5004928;28;20034;-84
2022/05/17 00:37:34;;;;;;;9.80;5.47;;;;;;;;;;5021250;28;20033;-85
2022/05/17 00:40:01;;;;;;;11.27;5.30;;;;;;;;;;5021638;28;20037;-84
2022/05/17 00:42:27;;;;;;;10.43;5.03;;;;;;;;;;5021872;28;20028;-84
2022/05/17 00:44:53;;;;;;;9.63;5.18;;;;;;;;;;5021129;28;20029;-87
2022/05/17 00:47:28;;;;;;;12.27;5.70;;;;;;;;;;5019154;28;20084;-86
2022/05/17 00:49:59;;;;;;;13.82;6.00;;;;;;;;;;5033302;28;20037;-87
2022/05/17 00:52:41;;;;;;;9.95;6.72;;;;;;;;;;5001479;28;20083;-84
2022/05/17 00:55:09;;;;;;;9.57;5.93;;;;;;;;;;4998144;28;20049;-84
2022/05/17 00:57:44;;;;;;;9.27;6.07;;;;;;;;;;4999117;28;20029;-86
2022/05/17 01:00:13;;;;;;;9.73;5.80;;;;;;;;;;4999591;28;20029;-85
2022/05/17 01:02:47;;;;;;;12.05;6.68;;;;;;;;;;5016142;28;20125;-86
2022/05/17 01:05:17;;;;;;;10.63;6.50;;;;;;;;;;5016825;28;20030;-85
2022/05/17 01:07:44;;;;;;;14.50;7.30;;;;;;;;;;5034368;28;20037;-88
2022/05/17 01:10:11;;;;;;;15.20;7.30;;;;;;;;;;5036112;28;20026;-85
2022/05/17 01:12:38;;;;;;;11.18;7.60;;;;;;;;;;5035413;28;20053;-85
2022/05/17 01:15:06;;;;;;;11.40;7.28;;;;;;;;;;5036653;28;20038;-85
2022/05/17 01:17:34;;;;;;;11.63;6.75;;;;;;;;;;4999448;28;20510;-86
2022/05/17 01:20:00;;;;;;;12.55;7.57;;;;;;;;;;5048658;28;20452;-85
2022/05/17 01:22:29;;;;;;;9.50;6.55;;;;;;;;;;4999796;28;20037;-87
2022/05/17 01:24:55;;;;;;;12.43;7.35;;;;;;;;;;5015513;28;20033;-86
2022/05/17 01:27:20;;;;;;;14.88;7.45;;;;;;;;;;5031751;28;20037;-86
2022/05/17 01:29:47;;;;;;;13.15;7.13;;;;;;;;;;4999507;28;20092;-86
2022/05/17 01:32:14;;;;;;;10.15;6.20;;;;;;;;;;5000226;28;20045;-86
2022/05/17 01:34:40;;;;;;;11.77;6.32;;;;;;;;;;5014939;28;20033;-86
2022/05/17 01:37:08;;;;;;;9.38;5.78;;;;;;;;;;5015385;28;20033;-85
2022/05/17 01:39:50;;;;;;;10.52;6.70;;;;;;;;;;5003102;28;20036;-85
2022/05/17 01:42:17;;;;;;;10.70;6.22;;;;;;;;;;5033116;28;20501;-84
2022/05/17 01:44:43;;;;;;;13.88;6.38;;;;;;;;;;5028967;28;20030;-85
2022/05/17 01:47:10;;;;;;;10.65;6.70;;;;;;;;;;5013669;28;20045;-84
2022/05/17 01:49:36;;;;;;;11.40;6.70;;;;;;;;;;5014226;28;20038;-84
2022/05/17 01:52:05;;;;;;;10.25;7.18;;;;;;;;;;4996560;28;20077;-84
2022/05/17 01:54:31;;;;;;;10.68;6.65;;;;;;;;;;5012809;28;20057;-86
2022/05/17 01:56:57;;;;;;;9.68;6.95;;;;;;;;;;4998637;28;20040;-85
2022/05/17 01:59:23;;;;;;;9.43;6.57;;;;;;;;;;5015137;28;20025;-87
2022/05/17 02:01:52;;;;;;;12.35;6.63;;;;;;;;;;5014233;28;20036;-85
2022/05/17 02:04:18;;;;;;;8.75;6.32;;;;;;;;;;5030584;28;20021;-84
2022/05/17 02:06:43;;;;;;;9.13;6.10;;;;;;;;;;5014923;28;20029;-84
2022/05/17 02:09:09;;;;;;;8.52;5.70;;;;;;;;;;5014316;28;20034;-84
2022/05/17 02:11:36;;;;;;;10.00;5.60;;;;;;;;;;4997940;28;20033;-84
2022/05/17 02:14:05;;;;;;;7.68;5.18;;;;;;;;;;5030083;28;20025;-85
2022/05/17 02:16:35;;;;;;;7.50;5.40;;;;;;;;;;5012801;28;20030;-87
2022/05/17 02:19:00;;;;;;;8.68;5.78;;;;;;;;;;5013753;28;20401;-88
2022/05/17 02:21:26;;;;;;;9.70;5.53;;;;;;;;;;5014371;28;20039;-87
2022/05/17 02:23:52;;;;;;;9.32;6.00;;;;;;;;;;5030120;28;20033;-86
2022/05/17 02:26:18;;;;;;;12.15;6.47;;;;;;;;;;4997687;28;20033;-86
2022/05/17 02:28:44;;;;;;;8.88;6.20;;;;;;;;;;5030436;28;20037;-85
2022/05/17 02:31:12;;;;;;;9.70;6.88;;;;;;;;;;5014158;28;20074;-87
2022/05/17 02:33:38;;;;;;;13.20;8.20;;;;;;;;;;5029039;28;20090;-86
2022/05/17 02:36:07;;;;;;;10.55;8.02;;;;;;;;;;4997953;28;20049;-87
2022/05/17 02:38:33;;;;;;;11.55;8.95;;;;;;;;;;5013896;28;20176;-86
2022/05/17 02:40:58;;;;;;;13.00;9.13;;;;;;;;;;5030353;28;20113;-84
2022/05/17 02:43:24;;;;;;;16.05;10.40;;;;;;;;;;5014359;28;20544;-86
2022/05/17 02:45:50;;;;;;;12.15;9.85;;;;;;;;;;4998997;28;20477;-84
2022/05/17 02:48:16;;;;;;;16.23;10.43;;;;;;;;;;4999163;28;20031;-85
2022/05/17 02:50:45;;;;;;;13.83;10.23;;;;;;;;;;5024798;28;20037;-84
2022/05/17 02:53:15;;;;;;;11.65;9.27;;;;;;;;;;5000286;28;20354;-86
2022/05/17 02:55:41;;;;;;;15.55;10.32;;;;;;;;;;4993432;28;20033;-87
2022/05/17 02:58:10;;;;;;;16.35;10.40;;;;;;;;;;5003438;28;20048;-85
2022/05/17 03:00:37;;;;;;;14.85;10.00;;;;;;;;;;5025615;28;20030;-87
2022/05/17 03:03:04;;;;;;;14.05;10.00;;;;;;;;;;5039523;28;20057;-86
2022/05/17 03:05:30;;;;;;;13.93;9.70;;;;;;;;;;5015822;28;20118;-86
2022/05/17 03:07:55;;;;;;;13.65;10.32;;;;;;;;;;5025672;28;20080;-85
2022/05/17 03:10:23;;;;;;;14.25;8.73;;;;;;;;;;5023863;28;20029;-86
2022/05/17 03:12:49;;;;;;;15.20;10.15;;;;;;;;;;5023893;28;20490;-77
2022/05/17 03:15:18;;;;;;;13.10;9.10;;;;;;;;;;4977555;28;20040;-76
2022/05/17 03:17:43;;;;;;;15.23;10.30;;;;;;;;;;4993571;28;20038;-77
2022/05/17 03:20:12;;;;;;;15.68;9.63;;;;;;;;;;4985629;28;20034;-76
2022/05/17 03:22:38;;;;;;;11.98;9.15;;;;;;;;;;5002936;28;20018;-78
2022/05/17 03:25:04;;;;;;;13.43;9.70;;;;;;;;;;5013266;28;20036;-77
2022/05/17 03:27:29;;;;;;;12.18;8.82;;;;;;;;;;5025130;28;20036;-76
2022/05/17 03:29:55;;;;;;;12.25;9.70;;;;;;;;;;5008720;28;20036;-77
2022/05/17 03:32:21;;;;;;;12.93;10.15;;;;;;;;;;5032725;28;20025;-77
2022/05/17 03:34:47;;;;;;;13.00;9.73;;;;;;;;;;5016203;28;20103;-76
2022/05/17 03:37:13;;;;;;;13.70;8.70;;;;;;;;;;5000138;28;20113;-77
2022/05/17 03:39:38;;;;;;;12.38;9.40;;;;;;;;;;5033744;28;20025;-78
2022/05/17 03:42:04;;;;;;;14.52;9.27;;;;;;;;;;5024002;28;20080;-77
2022/05/17 03:44:30;;;;;;;11.95;9.80;;;;;;;;;;5017005;28;20401;-78
2022/05/17 03:46:56;;;;;;;12.43;9.32;;;;;;;;;;5024267;28;20041;-77
2022/05/17 03:49:21;;;;;;;12.57;8.68;;;;;;;;;;4999398;28;20230;-77
2022/05/17 03:51:47;;;;;;;12.85;8.88;;;;;;;;;;5027319;28;20439;-76
2022/05/17 03:54:18;;;;;;;12.38;8.65;;;;;;;;;;5021061;28;20037;-75
2022/05/17 03:56:44;;;;;;;12.80;8.57;;;;;;;;;;5034090;28;20039;-76
2022/05/17 03:59:10;;;;;;;12.75;8.68;;;;;;;;;;5033420;28;20511;-77
2022/05/17 04:01:36;;;;;;;12.63;8.43;;;;;;;;;;5004195;28;20030;-76
2022/05/17 04:04:02;;;;;;;12.68;8.98;;;;;;;;;;5028007;28;20267;-74
2022/05/17 04:06:27;;;;;;;10.63;8.30;;;;;;;;;;4998849;28;20397;-76
2022/05/17 04:08:53;;;;;;;12.23;8.20;;;;;;;;;;5013338;28;20038;-76
2022/05/17 04:11:19;;;;;;;9.98;7.97;;;;;;;;;;5028593;28;20034;-76
2022/05/17 04:13:45;;;;;;;10.40;7.93;;;;;;;;;;5012003;28;20114;-76
2022/05/17 04:16:12;;;;;;;12.80;8.48;;;;;;;;;;5020941;28;20113;-77
2022/05/17 04:18:38;;;;;;;12.45;8.43;;;;;;;;;;4985874;28;20200;-77
2022/05/17 04:21:04;;;;;;;11.55;8.10;;;;;;;;;;4992934;28;20084;-76
2022/05/17 04:23:30;;;;;;;12.30;8.40;;;;;;;;;;5011952;28;20131;-76
2022/05/17 04:25:56;;;;;;;12.27;8.95;;;;;;;;;;5003917;28;20110;-76
2022/05/17 04:28:22;;;;;;;14.88;8.38;;;;;;;;;;5029455;28;20029;-77
2022/05/17 04:30:47;;;;;;;12.18;8.68;;;;;;;;;;4998917;28;20041;-77
2022/05/17 04:33:14;;;;;;;14.27;8.50;;;;;;;;;;4995411;28;20041;-77
2022/05/17 04:35:41;;;;;;;11.63;8.98;;;;;;;;;;4981490;28;20446;-77
2022/05/17 04:38:07;;;;;;;12.35;8.73;;;;;;;;;;5012742;28;20046;-77
2022/05/17 04:40:33;;;;;;;14.18;9.30;;;;;;;;;;5024754;28;20080;-78
2022/05/17 04:42:59;;;;;;;11.75;8.60;;;;;;;;;;4982401;28;20072;-76
2022/05/17 04:45:24;;;;;;;14.00;8.02;;;;;;;;;;5012238;28;20058;-76
2022/05/17 04:47:50;;;;;;;12.30;8.82;;;;;;;;;;5024685;28;20029;-76
2022/05/17 04:50:17;;;;;;;13.75;8.43;;;;;;;;;;5032512;28;20523;-75
2022/05/17 04:52:42;;;;;;;13.30;8.98;;;;;;;;;;5028841;28;20543;-76
2022/05/17 04:55:09;;;;;;;21.35;8.80;;;;;;;;;;5032472;28;20033;-76
2022/05/17 04:57:37;;;;;;;13.43;9.50;;;;;;;;;;5006574;28;20030;-76
2022/05/17 05:00:05;;;;;;;12.50;8.65;;;;;;;;;;4978365;28;20433;-78
2022/05/17 05:02:30;;;;;;;12.50;8.70;;;;;;;;;;5017637;28;20109;-78
2022/05/17 05:04:56;;;;;;;14.80;9.75;;;;;;;;;;4994703;28;20148;-77
2022/05/17 05:07:22;;;;;;;12.60;9.35;;;;;;;;;;5036718;28;20459;-76
2022/05/17 05:09:51;;;;;;;17.48;9.60;;;;;;;;;;5014388;28;20496;-77
2022/05/17 05:12:19;;;;;;;16.13;10.23;;;;;;;;;;4978548;28;20069;-77
2022/05/17 05:14:45;;;;;;;14.13;10.20;;;;;;;;;;5030967;28;20452;-77
2022/05/17 05:17:13;;;;;;;21.23;12.73;;;;;;;;;;5027116;28;20072;-76
2022/05/17 05:19:39;;;;;;;17.45;10.55;;;;;;;;;;5021205;28;20071;-78
2022/05/17 05:22:04;;;;;;;18.63;11.68;;;;;;;;;;5023672;28;20396;-77
2022/05/17 05:24:31;;;;;;;19.27;14.38;;;;;;;;;;5048421;28;20022;-78
2022/05/17 05:26:58;;;;;;;18.50;12.50;;;;;;;;;;5015372;28;20021;-76
2022/05/17 05:29:24;;;;;;;17.60;12.23;;;;;;;;;;5010688;28;20040;-76
2022/05/17 05:31:50;;;;;;;17.38;12.50;;;;;;;;;;5021947;28;20104;-76
2022/05/17 05:34:15;;;;;;;20.67;12.68;;;;;;;;;;5009365;28;20033;-77
2022/05/17 05:36:46;;;;;;;17.98;11.57;;;;;;;;;;5013519;28;20413;-77
2022/05/17 05:39:12;;;;;;;19.10;11.90;;;;;;;;;;5031638;28;20162;-78
2022/05/17 05:41:37;;;;;;;19.20;12.07;;;;;;;;;;5004449;28;20430;-78
2022/05/17 05:44:03;;;;;;;17.42;10.95;;;;;;;;;;5023538;28;20033;-78
2022/05/17 05:46:29;;;;;;;15.00;10.63;;;;;;;;;;5027474;28;20088;-78
2022/05/17 05:48:55;;;;;;;18.98;11.82;;;;;;;;;;4978659;28;20456;-77
2022/05/17 05:51:20;;;;;;;17.98;11.45;;;;;;;;;;5029871;28;20029;-78
2022/05/17 05:53:46;;;;;;;18.65;12.18;;;;;;;;;;5005592;28;20045;-79
2022/05/17 05:56:16;;;;;;;18.13;11.50;;;;;;;;;;4997922;28;20038;-78
2022/05/17 05:58:42;;;;;;;15.65;9.95;;;;;;;;;;5013463;28;20031;-77
2022/05/17 06:01:09;;;;;;;20.90;12.18;;;;;;;;;;4993926;28;20111;-78
2022/05/17 06:03:35;;;;;;;15.55;11.27;;;;;;;;;;5015932;28;20030;-78
2022/05/17 06:06:01;;;;;;;19.40;11.20;;;;;;;;;;5039685;28;20335;-77
2022/05/17 06:08:27;;;;;;;16.48;11.32;;;;;;;;;;5029235;28;20635;-78
2022/05/17 06:10:56;;;;;;;18.83;11.38;;;;;;;;;;5030548;28;20060;-76
2022/05/17 06:13:22;;;;;;;19.38;11.27;;;;;;;;;;4997103;28;20035;-78
2022/05/17 06:15:50;;;;;;;17.23;11.25;;;;;;;;;;5017052;28;20056;-77
2022/05/17 06:18:16;;;;;;;18.85;11.95;;;;;;;;;;5013521;28;20036;-77
2022/05/17 06:20:47;;;;;;;21.48;12.27;;;;;;;;;;5047705;28;20108;-78
2022/05/17 06:23:13;;;;;;;20.15;11.90;;;;;;;;;;5050204;28;20033;-80
2022/05/17 06:25:39;;;;;;;20.13;11.95;;;;;;;;;;5014867;28;20093;-77
2022/05/17 06:28:05;;;;;;;22.38;12.55;;;;;;;;;;5036032;28;20033;-80
2022/05/17 06:30:31;;;;;;;22.58;12.35;;;;;;;;;;5000391;28;20071;-79
2022/05/17 06:33:01;;;;;;;25.00;11.18;;;;;;;;;;5029722;28;20025;-80
2022/05/17 06:35:26;;;;;;;23.40;11.63;;;;;;;;;;5020765;28;20041;-85
2022/05/17 06:37:53;;;;;;;17.70;11.77;;;;;;;;;;5017183;28;20040;-85
2022/05/17 06:40:19;;;;;;;20.48;12.70;;;;;;;;;;5051848;28;20033;-72
2022/05/17 06:42:45;;;;;;;22.05;12.95;;;;;;;;;;5033095;28;20021;-72
2022/05/17 06:45:12;;;;;;;21.88;12.70;;;;;;;;;;5033291;28;20112;-72
2022/05/17 06:47:37;;;;;;;22.60;13.13;;;;;;;;;;5036279;28;20120;-72
2022/05/17 06:50:03;;;;;;;17.83;12.68;;;;;;;;;;5054248;28;20024;-72
2022/05/17 06:52:29;;;;;;;19.25;12.80;;;;;;;;;;5036042;28;20040;-72
2022/05/17 06:54:55;;;;;;;16.80;11.95;;;;;;;;;;5052744;28;20559;-73
2022/05/17 06:57:21;;;;;;;19.23;12.82;;;;;;;;;;5041521;28;20033;-72
2022/05/17 06:59:47;;;;;;;18.70;12.90;;;;;;;;;;5017257;28;20021;-73
2022/05/17 07:02:13;;;;;;;16.50;11.18;;;;;;;;;;5031436;28;20021;-74
2022/05/17 07:04:39;;;;;;;20.30;11.32;;;;;;;;;;5034428;28;20079;-74
2022/05/17 07:07:06;;;;;;;20.90;11.80;;;;;;;;;;5022106;28;20028;-74
2022/05/17 07:09:33;;;;;;;19.05;11.05;;;;;;;;;;5036188;28;20053;-73
2022/05/17 07:14:43;;;;;;;20.27;12.55;;;;;;;;;;5040483;28;20041;-73
2022/05/17 07:17:13;;;;;;;20.52;13.25;;;;;;;;;;5030528;28;20084;-72
2022/05/17 07:19:38;;;;;;;23.63;14.50;;;;;;;;;;5035826;28;20033;-72
2022/05/17 07:22:06;;;;;;;22.30;13.30;;;;;;;;;;5035946;28;20043;-72
2022/05/17 07:24:32;;;;;;;20.73;13.70;;;;;;;;;;5032797;28;20579;-71
2022/05/17 07:26:58;;;;;;;20.30;14.73;;;;;;;;;;5053481;28;20029;-75
2022/05/17 07:29:24;;;;;;;22.48;14.70;;;;;;;;;;5052311;28;20082;-72
2022/05/17 07:31:50;;;;;;;24.58;15.60;;;;;;;;;;5041718;28;20358;-74
2022/05/17 07:34:16;;;;;;;19.60;14.73;;;;;;;;;;5033112;28;20041;-72
2022/05/17 07:36:42;;;;;;;21.45;14.13;;;;;;;;;;5049934;28;20021;-73
2022/05/17 07:39:08;;;;;;;24.65;17.27;;;;;;;;;;5032238;28;20377;-74
2022/05/17 07:41:34;;;;;;;27.17;17.02;;;;;;;;;;5042577;28;20024;-72
2022/05/17 07:44:01;;;;;;;24.58;16.42;;;;;;;;;;5052793;28;20075;-72
2022/05/17 07:46:26;;;;;;;24.63;17.13;;;;;;;;;;5035346;28;20479;-72
2022/05/17 07:48:52;;;;;;;28.70;18.30;;;;;;;;;;5029892;28;20036;-73
2022/05/17 07:51:18;;;;;;;27.35;17.90;;;;;;;;;;5036434;28;20041;-73
2022/05/17 07:53:44;;;;;;;30.92;18.92;;;;;;;;;;5051690;28;20035;-72
2022/05/17 07:56:11;;;;;;;29.88;18.20;;;;;;;;;;5047534;28;20033;-72
2022/05/17 07:58:36;;;;;;;26.88;17.42;;;;;;;;;;5036476;28;20037;-73
2022/05/17 08:01:02;;;;;;;33.85;19.13;;;;;;;;;;5034668;28;20029;-72
2022/05/17 08:03:28;;;;;;;29.65;18.60;;;;;;;;;;5015237;28;20034;-72
2022/05/17 08:05:54;;;;;;;26.98;18.55;;;;;;;;;;5024222;28;20515;-73
2022/05/17 08:08:19;;;;;;;29.92;19.00;;;;;;;;;;5051676;28;20033;-73
2022/05/17 08:10:47;;;;;;;31.55;20.02;;;;;;;;;;5034752;28;20044;-73
2022/05/17 08:13:17;;;;;;;28.58;19.48;;;;;;;;;;5034551;28;20392;-73
2022/05/17 08:15:43;;;;;;;28.70;18.60;;;;;;;;;;5053058;28;20115;-73
2022/05/17 08:18:08;;;;;;;29.40;20.52;;;;;;;;;;5051617;28;20108;-73
2022/05/17 08:20:35;;;;;;;29.05;18.67;;;;;;;;;;5017108;28;20047;-73
2022/05/17 08:23:00;;;;;;;30.33;19.08;;;;;;;;;;5043326;28;20029;-73
2022/05/17 08:28:10;;;;;;;24.10;17.48;;;;;;;;;;5034766;28;20025;-73
2022/05/17 08:30:36;;;;;;;30.17;16.58;;;;;;;;;;5049759;28;20032;-73
2022/05/17 08:33:17;;;;;;;28.40;17.17;;;;;;;;;;5017966;28;20040;-73
2022/05/17 08:35:43;;;;;;;25.45;16.83;;;;;;;;;;5041698;28;20484;-73
2022/05/17 08:38:10;;;;;;;24.52;14.82;;;;;;;;;;5030559;28;20044;-74
2022/05/17 08:40:49;;;;;;;23.65;16.33;;;;;;;;;;5026847;28;20021;-73
2022/05/17 08:43:21;;;;;;;30.65;17.23;;;;;;;;;;5044942;28;20029;-74
2022/05/17 08:45:58;;;;;;;25.23;16.73;;;;;;;;;;5014765;28;20480;-74
2022/05/17 08:48:30;;;;;;;26.63;16.55;;;;;;;;;;5034352;28;20527;-73
2022/05/17 08:50:56;;;;;;;24.25;17.13;;;;;;;;;;5034596;28;20032;-72
2022/05/17 08:53:22;;;;;;;25.30;16.40;;;;;;;;;;5050595;28;20037;-72
2022/05/17 08:55:50;;;;;;;24.13;15.27;;;;;;;;;;5032982;28;20070;-73
2022/05/17 08:58:20;;;;;;;25.95;16.50;;;;;;;;;;5020516;28;20051;-72
2022/05/17 09:00:54;;;;;;;22.20;14.70;;;;;;;;;;5049085;28;20159;-72
2022/05/17 09:03:25;;;;;;;24.50;14.52;;;;;;;;;;5030210;28;20028;-72
2022/05/17 09:06:02;;;;;;;18.75;13.52;;;;;;;;;;5033815;28;20083;-72
2022/05/17 09:08:34;;;;;;;22.70;12.95;;;;;;;;;;5035295;28;20029;-73
2022/05/17 09:11:04;;;;;;;18.88;11.95;;;;;;;;;;4989597;28;20074;-73
2022/05/17 09:13:44;;;;;;;21.52;11.38;;;;;;;;;;5062135;22;20170;-80
2022/05/17 09:16:10;;;;;;;16.75;11.00;;;;;;;;;;5038176;28;20247;-80
2022/05/17 09:18:39;;;;;;;18.90;11.35;;;;;;;;;;5055085;28;20058;-80
2022/05/17 09:21:28;;;;;;;14.07;10.60;;;;;;;;;;5055008;28;20020;-80
2022/05/17 09:23:53;;;;;;;19.33;11.48;;;;;;;;;;5037163;28;20075;-80
2022/05/17 09:26:19;;;;;;;21.83;11.40;;;;;;;;;;5053744;28;20104;-80
2022/05/17 09:28:47;;;;;;;23.45;12.05;;;;;;;;;;5052941;28;20565;-80
2022/05/17 09:31:24;;;;;;;13.90;9.70;;;;;;;;;;5056769;28;20047;-80
2022/05/17 09:33:50;;;;;;;14.25;8.95;;;;;;;;;;5053046;28;20503;-79
2022/05/17 09:36:17;;;;;;;11.98;8.30;;;;;;;;;;5053177;28;20024;-80
2022/05/17 09:38:43;;;;;;;14.55;8.25;;;;;;;;;;5036584;28;20377;-80
2022/05/17 09:41:11;;;;;;;15.73;9.98;;;;;;;;;;5053614;28;20131;-80
2022/05/17 09:43:39;;;;;;;15.65;9.88;;;;;;;;;;5071137;28;20025;-80
2022/05/17 09:46:09;;;;;;;15.73;9.30;;;;;;;;;;5078707;28;20138;-80
2022/05/17 09:54:06;;;;;;;14.57;9.60;;;;;;;;;;5057253;28;20029;-80
2022/05/17 09:56:32;;;;;;;15.65;9.60;;;;;;;;;;5036912;28;20067;-79
2022/05/17 09:58:58;;;;;;;13.23;8.75;;;;;;;;;;5053211;28;20032;-80
2022/05/17 10:01:35;;;;;;;14.20;7.70;;;;;;;;;;5036189;28;20020;-80
2022/05/17 10:04:10;;;;;;;11.07;7.53;;;;;;;;;;5084757;28;20028;-81
2022/05/17 10:06:38;;;;;;;16.27;7.55;;;;;;;;;;5055288;28;20048;-81
2022/05/17 10:09:09;;;;;;;13.60;7.07;;;;;;;;;;5073003;28;20036;-81
2022/05/17 10:11:58;;;;;;;11.52;7.53;;;;;;;;;;5067915;28;20029;-81
2022/05/17 10:14:31;;;;;;;13.82;7.35;;;;;;;;;;5058360;28;20510;-82
2022/05/17 10:17:00;;;;;;;14.60;7.30;;;;;;;;;;5061099;28;20037;-79
2022/05/17 10:19:38;;;;;;;13.15;6.63;;;;;;;;;;5059216;28;20021;-79
2022/05/17 10:22:11;;;;;;;10.98;6.85;;;;;;;;;;5082603;28;20035;-80
2022/05/17 10:24:46;;;;;;;12.27;5.50;;;;;;;;;;5075123;28;20021;-80
2022/05/17 10:27:18;;;;;;;11.38;6.30;;;;;;;;;;5023741;28;20052;-80
2022/05/17 10:29:52;;;;;;;10.70;6.55;;;;;;;;;;5048334;28;20028;-81
2022/05/17 10:32:20;;;;;;;10.52;6.18;;;;;;;;;;5021289;28;20392;-80
2022/05/17 10:34:47;;;;;;;;;;;;;;;;;;5063692;28;20043;-81
2022/05/17 10:37:14;;;;;;;13.95;7.13;;;;;;;;;;5083803;28;20449;-81
2022/05/17 10:39:40;;;;;;;11.00;5.28;;;;;;;;;;5056667;28;20036;-80
2022/05/17 10:42:06;;;;;;;10.90;6.00;;;;;;;;;;5056884;28;20587;-80
2022/05/17 10:44:37;;;;;;;7.88;5.40;;;;;;;;;;5056657;28;20024;-80
2022/05/17 10:47:07;;;;;;;9.07;5.35;;;;;;;;;;5056788;28;20024;-80
2022/05/17 10:50:02;;;;;;;10.70;5.68;;;;;;;;;;5072919;28;20012;-81
2022/05/17 10:52:57;;;;;;;10.85;5.82;;;;;;;;;;5057723;28;20121;-81
2022/05/17 10:55:31;;;;;;;9.80;6.00;;;;;;;;;;4983685;28;20113;-80
2022/05/17 10:58:05;;;;;;;10.10;5.38;;;;;;;;;;5066697;28;20032;-80
2022/05/17 11:00:34;;;;;;;9.07;5.20;;;;;;;;;;5056507;28;20021;-80
2022/05/17 11:03:19;;;;;;;10.98;5.13;;;;;;;;;;5056349;28;20047;-81
2022/05/17 11:05:53;;;;;;;12.32;5.50;;;;;;;;;;5074961;28;20020;-79
2022/05/17 11:08:25;;;;;;;10.43;5.38;;;;;;;;;;5066344;28;20032;-81
2022/05/17 11:10:54;;;;;;;10.57;5.00;;;;;;;;;;5024727;28;20048;-78
2022/05/17 11:13:24;;;;;;;9.30;4.90;;;;;;;;;;5044434;28;20037;-77
2022/05/17 11:15:52;;;;;;;7.93;4.43;;;;;;;;;;5056645;28;20116;-79
2022/05/17 11:18:25;;;;;;;8.73;4.07;;;;;;;;;;5074688;28;20082;-78
2022/05/17 11:21:01;;;;;;;12.68;3.95;;;;;;;;;;5044243;28;20028;-79
2022/05/17 11:23:46;;;;;;;7.55;3.70;;;;;;;;;;5063206;28;20067;-79
2022/05/17 11:26:27;;;;;;;7.05;3.00;;;;;;;;;;5092987;28;20028;-77
2022/05/17 11:29:11;;;;;;;6.05;3.00;;;;;;;;;;5046570;28;20031;-81
2022/05/17 11:31:37;;;;;;;4.88;2.80;;;;;;;;;;5060618;28;20111;-80
2022/05/17 11:34:21;;;;;;;6.35;3.60;;;;;;;;;;5057475;28;20068;-79
2022/05/17 11:36:47;;;;;;;7.00;3.45;;;;;;;;;;5040124;28;20559;-80
2022/05/17 11:39:31;;;;;;;6.20;3.30;;;;;;;;;;5059290;28;20041;-81
2022/05/17 11:42:06;;;;;;;9.93;3.95;;;;;;;;;;5081765;28;20024;-80
2022/05/17 11:44:42;;;;;;;7.03;3.10;;;;;;;;;;5059302;28;20032;-79
2022/05/17 11:47:28;;;;;;;8.27;3.97;;;;;;;;;;5067092;28;20020;-80
2022/05/17 11:50:13;;;;;;;7.28;3.10;;;;;;;;;;5069801;28;20138;-81
2022/05/17 11:52:38;;;;;;;5.47;2.90;;;;;;;;;;5062871;28;20043;-81
2022/05/17 11:55:05;;;;;;;6.60;2.65;;;;;;;;;;5068289;28;20024;-81
2022/05/17 11:57:31;;;;;;;9.23;2.88;;;;;;;;;;5090306;28;20036;-81
2022/05/17 11:59:57;;;;;;;12.05;3.47;;;;;;;;;;5096123;28;20032;-80
2022/05/17 12:02:41;;;;;;;10.00;4.13;;;;;;;;;;5076253;28;20044;-80
2022/05/17 12:05:10;;;;;;;4.05;2.40;;;;;;;;;;5093477;28;20042;-80
2022/05/17 12:07:35;;;;;;;5.53;2.90;;;;;;;;;;5041191;28;20056;-80
2022/05/17 12:10:12;;;;;;;6.97;3.42;;;;;;;;;;5085314;28;20036;-80
2022/05/17 12:12:41;;;;;;;5.93;2.90;;;;;;;;;;5058950;28;20037;-81
2022/05/17 12:15:12;;;;;;;5.43;2.60;;;;;;;;;;5034676;28;20494;-81
2022/05/17 12:17:49;;;;;;;4.97;2.75;;;;;;;;;;5082948;28;20220;-80
2022/05/17 12:20:14;;;;;;;7.87;3.80;;;;;;;;;;5056886;28;20033;-80
2022/05/17 12:22:45;;;;;;;7.88;3.40;;;;;;;;;;5074184;28;20341;-80
2022/05/17 12:25:46;;;;;;;6.18;3.20;;;;;;;;;;5073854;28;20021;-80
2022/05/17 12:28:18;;;;;;;6.45;3.47;;;;;;;;;;4987837;28;20485;-81
2022/05/17 12:31:00;;;;;;;7.68;4.18;;;;;;;;;;5031812;28;20116;-81
2022/05/17 12:33:33;;;;;;;5.93;3.42;;;;;;;;;;5072154;28;20029;-80
2022/05/17 12:36:18;;;;;;;9.68;4.03;;;;;;;;;;5066099;28;20491;-81
2022/05/17 12:44:28;;;;;;;9.95;3.70;;;;;;;;;;5038043;28;20528;-80
2022/05/17 12:46:55;;;;;;;7.72;3.90;;;;;;;;;;5054578;28;20081;-80
2022/05/17 12:49:25;;;;;;;13.18;4.50;;;;;;;;;;5071191;28;20025;-81
2022/05/17 12:51:52;;;;;;;8.48;4.22;;;;;;;;;;5060160;28;20036;-80
2022/05/17 12:54:21;;;;;;;7.35;3.70;;;;;;;;;;5072097;28;20033;-80
2022/05/17 12:56:47;;;;;;;9.52;3.83;;;;;;;;;;5072557;28;20028;-81
2022/05/17 12:59:13;;;;;;;6.82;3.70;;;;;;;;;;5055735;28;20115;-80
2022/05/17 13:01:40;;;;;;;9.32;4.30;;;;;;;;;;5072365;28;20443;-81
2022/05/17 13:04:06;;;;;;;6.85;3.47;;;;;;;;;;5059796;28;20024;-80
2022/05/17 13:06:33;;;;;;;6.90;3.25;;;;;;;;;;5038775;28;20028;-81
2022/05/17 13:08:58;;;;;;;8.10;3.50;;;;;;;;;;5053882;28;20056;-80
2022/05/17 13:11:25;;;;;;;6.85;3.38;;;;;;;;;;5054023;28;20071;-81
2022/05/17 13:14:21;;;;;;;9.57;4.50;;;;;;;;;;5070921;28;20060;-80
2022/05/17 13:16:47;;;;;;;9.73;3.75;;;;;;;;;;5054131;28;20078;-82
2022/05/17 13:19:15;;;;;;;10.20;3.75;;;;;;;;;;5036923;28;20036;-80
2022/05/17 13:21:41;;;;;;;;;;;;;;;;;;5070658;28;20122;-81
2022/05/17 13:24:30;;;;;;;8.40;4.18;;;;;;;;;;5034149;28;19909;-81
2022/05/17 13:26:58;;;;;;;8.02;4.03;;;;;;;;;;5047459;28;20044;-81
2022/05/17 13:29:29;;;;;;;7.43;3.20;;;;;;;;;;5053219;28;20052;-81
2022/05/17 13:31:57;;;;;;;7.00;3.13;;;;;;;;;;5070887;28;20028;-81
2022/05/17 13:34:26;;;;;;;12.00;3.50;;;;;;;;;;5070511;28;20025;-80
2022/05/17 13:37:01;;;;;;;10.00;3.05;;;;;;;;;;5054491;28;20024;-80
2022/05/17 13:39:28;;;;;;;6.80;2.80;;;;;;;;;;5075209;28;20029;-81
2022/05/17 13:41:54;;;;;;;6.68;2.97;;;;;;;;;;5060668;28;20488;-81
2022/05/17 13:44:34;;;;;;;10.55;3.30;;;;;;;;;;5070911;28;20107;-80
2022/05/17 13:47:04;;;;;;;6.38;3.60;;;;;;;;;;5038177;28;20021;-81
2022/05/17 13:49:34;;;;;;;8.05;4.10;;;;;;;;;;5071109;28;20043;-81
2022/05/17 13:52:05;;;;;;;4.57;2.67;;;;;;;;;;5071313;28;20028;-80
2022/05/17 13:54:41;;;;;;;8.20;3.47;;;;;;;;;;5075096;28;20020;-81
2022/05/17 13:57:19;;;;;;;9.98;3.30;;;;;;;;;;5053736;28;20102;-81
2022/05/17 13:59:50;;;;;;;8.13;3.00;;;;;;;;;;5052949;28;20047;-81
2022/05/17 14:02:29;;;;;;;5.82;2.60;;;;;;;;;;5071531;28;20024;-80
2022/05/17 14:05:05;;;;;;;7.40;3.40;;;;;;;;;;5053734;28;20028;-81
2022/05/17 14:07:32;;;;;;;7.55;4.38;;;;;;;;;;5053292;28;20077;-83
2022/05/17 14:13:20;;;;;;;9.63;4.35;;;;;;;;;;5005967;28;20085;-80
2022/05/17 14:15:45;;;;;;;9.65;3.88;;;;;;;;;;5051628;28;20037;-82
2022/05/17 14:18:12;;;;;;;9.07;4.93;;;;;;;;;;5053115;28;20110;-80
2022/05/17 14:20:38;;;;;;;12.63;7.10;;;;;;;;;;5070975;28;20023;-81
2022/05/17 14:23:03;;;;;;;7.20;4.15;;;;;;;;;;5070986;28;20467;-82
2022/05/17 14:25:29;;;;;;;8.15;4.00;;;;;;;;;;5052735;28;20503;-82
2022/05/17 14:27:56;;;;;;;13.13;4.72;;;;;;;;;;5069952;28;20028;-81
2022/05/17 14:30:21;;;;;;;8.82;4.22;;;;;;;;;;5062111;28;20028;-82
2022/05/17 14:32:47;;;;;;;10.02;4.10;;;;;;;;;;5036338;28;20029;-82
2022/05/17 14:35:13;;;;;;;6.85;3.42;;;;;;;;;;5052979;28;20032;-80
2022/05/17 14:37:39;;;;;;;10.90;3.85;;;;;;;;;;5052705;28;20396;-80
2022/05/17 14:40:04;;;;;;;10.25;3.10;;;;;;;;;;5052663;28;20024;-81
2022/05/17 14:42:30;;;;;;;11.80;4.20;;;;;;;;;;5036118;28;20029;-81
2022/05/17 14:44:56;;;;;;;4.60;2.40;;;;;;;;;;5051010;28;20036;-81
2022/05/17 14:47:24;;;;;;;5.63;2.20;;;;;;;;;;5074612;28;20024;-79
2022/05/17 14:49:57;;;;;;;5.07;3.22;;;;;;;;;;5080743;28;20107;-81
2022/05/17 14:52:22;;;;;;;10.75;3.33;;;;;;;;;;5052759;28;20033;-81
2022/05/17 14:54:48;;;;;;;5.03;2.25;;;;;;;;;;5070840;28;20395;-83
2022/05/17 14:57:14;;;;;;;7.07;2.38;;;;;;;;;;5056249;28;20028;-81
2022/05/17 14:59:40;;;;;;;5.35;2.33;;;;;;;;;;5074327;28;20016;-82